createdAt,value
2022-09-09T00:00:16.625Z,13.36
2022-09-09T00:02:52.335Z,13.35
2022-09-09T00:05:29.539Z,13.35
2022-09-09T00:08:04.851Z,13.32
2022-09-09T00:10:34.929Z,13.34
2022-09-09T00:13:15.162Z,13.34
2022-09-09T00:15:51.415Z,13.35
2022-09-09T00:18:26.677Z,13.36
2022-09-09T00:20:59.968Z,13.35
2022-09-09T00:23:32.337Z,13.34
2022-09-09T00:26:10.349Z,13.39
2022-09-09T00:28:44.637Z,13.34
2022-09-09T00:31:16.250Z,13.37
2022-09-09T00:33:45.264Z,13.37
2022-09-09T00:36:17.574Z,13.41
2022-09-09T00:38:50.176Z,13.42
2022-09-09T00:41:23.607Z,13.41
2022-09-09T00:44:00.364Z,13.40
2022-09-09T00:46:44.772Z,13.41
2022-09-09T00:49:21.902Z,13.42
2022-09-09T00:52:01.086Z,13.41
2022-09-09T00:54:41.345Z,13.38
2022-09-09T00:57:19.863Z,13.41
2022-09-09T00:59:50.211Z,13.42
2022-09-09T01:02:30.204Z,13.39
2022-09-09T01:05:06.338Z,13.42
2022-09-09T01:07:35.270Z,13.38
2022-09-09T01:10:14.183Z,13.38
2022-09-09T01:12:44.901Z,13.38
2022-09-09T01:15:17.258Z,13.38
2022-09-09T01:17:58.948Z,13.38
2022-09-09T01:20:32.155Z,13.38
2022-09-09T01:23:13.216Z,13.35
2022-09-09T01:26:23.485Z,13.35
2022-09-09T01:28:53.786Z,13.38
2022-09-09T01:31:25.520Z,13.42
2022-09-09T01:33:53.494Z,13.39
2022-09-09T01:36:30.168Z,13.37
2022-09-09T01:38:58.702Z,13.42
2022-09-09T01:41:28.191Z,13.42
2022-09-09T01:43:57.461Z,13.43
2022-09-09T01:46:25.486Z,13.45
2022-09-09T01:48:55.342Z,13.46
2022-09-09T01:51:24.072Z,13.42
2022-09-09T01:53:52.185Z,13.40
2022-09-09T01:56:42.746Z,13.40
2022-09-09T01:59:26.611Z,13.38
2022-09-09T02:02:06.055Z,13.41
2022-09-09T02:04:40.266Z,13.40
2022-09-09T02:07:21.076Z,13.43
2022-09-09T02:09:55.161Z,13.41
2022-09-09T02:12:27.117Z,13.41
2022-09-09T02:15:00.325Z,13.39
2022-09-09T02:17:30.691Z,13.40
2022-09-09T02:20:06.909Z,13.38
2022-09-09T02:22:36.881Z,13.41
2022-09-09T02:25:07.295Z,13.38
2022-09-09T02:27:36.873Z,13.35
2022-09-09T02:30:06.522Z,13.33
2022-09-09T02:32:38.396Z,13.32
2022-09-09T02:35:11.370Z,13.31
2022-09-09T02:37:41.240Z,13.32
2022-09-09T02:40:12.435Z,13.32
2022-09-09T02:42:42.917Z,13.32
2022-09-09T02:45:12.748Z,13.26
2022-09-09T02:47:49.351Z,13.26
2022-09-09T02:50:22.033Z,13.25
2022-09-09T02:53:01.393Z,13.25
2022-09-09T02:55:39.905Z,13.19
2022-09-09T02:58:13.516Z,13.16
2022-09-09T03:00:42.498Z,13.17
2022-09-09T03:03:10.937Z,13.18
2022-09-09T03:05:39.609Z,13.17
2022-09-09T03:08:07.996Z,13.14
2022-09-09T03:10:36.476Z,13.13
2022-09-09T03:13:05.286Z,13.12
2022-09-09T03:15:35.301Z,13.12
2022-09-09T03:18:03.611Z,13.12
2022-09-09T03:20:32.650Z,13.12
2022-09-09T03:23:03.307Z,13.09
2022-09-09T03:25:31.258Z,13.09
2022-09-09T03:27:59.584Z,13.07
2022-09-09T03:30:29.405Z,13.05
2022-09-09T03:32:59.092Z,13.02
2022-09-09T03:35:27.081Z,12.96
2022-09-09T03:37:56.737Z,13.00
2022-09-09T03:40:24.694Z,12.97
2022-09-09T03:42:52.677Z,12.95
2022-09-09T03:45:20.645Z,12.94
2022-09-09T03:47:48.581Z,12.95
2022-09-09T03:50:19.463Z,12.91
2022-09-09T03:52:47.916Z,12.89
2022-09-09T03:55:15.976Z,12.93
2022-09-09T03:57:44.017Z,12.94
2022-09-09T04:00:12.826Z,12.90
2022-09-09T04:02:40.784Z,12.88
2022-09-09T04:05:09.458Z,12.87
2022-09-09T04:07:38.820Z,12.80
2022-09-09T04:10:08.296Z,12.78
2022-09-09T04:12:36.725Z,12.76
2022-09-09T04:15:05.097Z,12.73
2022-09-09T04:17:33.878Z,12.68
2022-09-09T04:20:02.241Z,12.64
2022-09-09T04:22:30.206Z,12.68
2022-09-09T04:24:59.537Z,12.68
2022-09-09T04:27:27.509Z,12.67
2022-09-09T04:29:56.688Z,12.68
2022-09-09T04:32:27.731Z,12.64
2022-09-09T04:34:55.763Z,12.63
2022-09-09T04:37:23.685Z,12.65
2022-09-09T04:39:51.664Z,12.59
2022-09-09T04:42:20.946Z,12.66
2022-09-09T04:44:48.881Z,12.69
2022-09-09T04:47:16.840Z,12.69
2022-09-09T04:49:44.802Z,12.62
2022-09-09T04:52:13.344Z,12.66
2022-09-09T04:54:41.341Z,12.67
2022-09-09T04:57:09.281Z,12.71
2022-09-09T04:59:38.585Z,12.71
2022-09-09T05:02:06.606Z,12.71
2022-09-09T05:04:34.653Z,12.71
2022-09-09T05:07:02.590Z,12.72
2022-09-09T05:09:31.720Z,12.72
2022-09-09T05:12:00.421Z,12.75
2022-09-09T05:14:28.593Z,12.78
2022-09-09T05:16:58.963Z,12.72
2022-09-09T05:19:26.972Z,12.72
2022-09-09T05:21:54.886Z,12.66
2022-09-09T05:24:24.056Z,12.60
2022-09-09T05:26:51.996Z,12.66
2022-09-09T05:29:20.820Z,12.62
2022-09-09T05:31:49.165Z,12.63
2022-09-09T05:34:18.545Z,12.59
2022-09-09T05:36:46.504Z,12.55
2022-09-09T05:39:14.521Z,12.54
2022-09-09T05:41:42.478Z,12.55
2022-09-09T05:44:10.416Z,12.50
2022-09-09T05:46:39.021Z,12.50
2022-09-09T05:49:07.542Z,12.47
2022-09-09T05:51:36.843Z,12.50
2022-09-09T05:54:05.110Z,12.53
2022-09-09T05:56:33.411Z,12.51
2022-09-09T05:59:02.063Z,12.55
2022-09-09T06:01:33.271Z,12.54
2022-09-09T06:04:01.433Z,12.57
2022-09-09T06:06:37.474Z,12.55
2022-09-09T06:09:10.598Z,12.59
2022-09-09T06:11:40.756Z,12.64
2022-09-09T06:14:09.178Z,12.59
2022-09-09T06:16:38.739Z,12.69
2022-09-09T06:19:07.452Z,12.78
2022-09-09T06:21:38.780Z,12.85
2022-09-09T06:24:09.375Z,12.88
2022-09-09T06:26:42.109Z,12.89
2022-09-09T06:29:10.711Z,12.97
2022-09-09T06:31:39.627Z,13.00
2022-09-09T06:34:10.035Z,13.07
2022-09-09T06:36:39.880Z,13.07
2022-09-09T06:39:14.746Z,13.09
2022-09-09T06:41:44.513Z,13.15
2022-09-09T06:44:13.678Z,13.21
2022-09-09T06:46:41.997Z,13.23
2022-09-09T06:49:10.272Z,13.28
2022-09-09T06:51:43.954Z,13.31
2022-09-09T06:54:14.589Z,13.35
2022-09-09T06:56:44.525Z,13.41
2022-09-09T06:59:13.147Z,13.47
2022-09-09T07:01:42.867Z,13.46
2022-09-09T07:04:11.958Z,13.63
2022-09-09T07:06:42.030Z,13.69
2022-09-09T07:09:11.897Z,13.81
2022-09-09T07:11:42.662Z,13.92
2022-09-09T07:14:13.887Z,14.01
2022-09-09T07:16:42.873Z,14.10
2022-09-09T07:19:11.533Z,14.10
2022-09-09T07:21:41.260Z,14.31
2022-09-09T07:24:11.136Z,14.43
2022-09-09T07:26:41.529Z,14.52
2022-09-09T07:29:10.308Z,14.52
2022-09-09T07:31:40.918Z,14.63
2022-09-09T07:34:09.386Z,14.73
2022-09-09T07:36:38.913Z,14.87
2022-09-09T07:39:08.827Z,14.94
2022-09-09T07:41:39.024Z,15.02
2022-09-09T07:44:09.668Z,15.06
2022-09-09T07:46:39.972Z,15.10
2022-09-09T07:49:08.018Z,15.16
2022-09-09T07:51:38.159Z,15.16
2022-09-09T07:54:10.184Z,15.19
2022-09-09T07:56:40.224Z,15.15
2022-09-09T07:59:10.525Z,15.20
2022-09-09T08:01:40.703Z,15.31
2022-09-09T08:04:10.352Z,15.28
2022-09-09T08:06:40.587Z,15.34
2022-09-09T08:09:10.262Z,15.37
2022-09-09T08:11:39.526Z,15.42
2022-09-09T08:14:10.361Z,15.51
2022-09-09T08:16:41.288Z,15.62
2022-09-09T08:19:09.745Z,15.65
2022-09-09T08:21:40.020Z,15.52
2022-09-09T08:24:09.081Z,15.48
2022-09-09T08:26:38.800Z,15.38
2022-09-09T08:29:11.080Z,15.33
2022-09-09T08:31:40.507Z,15.30
2022-09-09T08:34:10.132Z,15.33
2022-09-09T08:36:41.546Z,15.37
2022-09-09T08:39:09.987Z,15.40
2022-09-09T08:42:03.549Z,15.41
2022-09-09T08:44:52.087Z,15.38
2022-09-09T08:47:33.083Z,15.34
2022-09-09T08:50:15.978Z,15.38
2022-09-09T08:52:51.437Z,15.44
2022-09-09T08:55:27.817Z,15.48
2022-09-09T08:57:58.129Z,15.42
2022-09-09T09:00:34.630Z,15.52
2022-09-09T09:03:11.782Z,15.73
2022-09-09T09:05:49.436Z,15.88
2022-09-09T09:08:27.066Z,15.97
2022-09-09T09:10:59.184Z,16.20
2022-09-09T09:13:40.477Z,16.36
2022-09-09T09:16:23.353Z,16.47
2022-09-09T09:18:52.325Z,16.67
2022-09-09T09:21:26.891Z,16.85
2022-09-09T09:24:00.229Z,17.03
2022-09-09T09:26:32.743Z,17.09
2022-09-09T09:29:04.080Z,17.21
2022-09-09T09:31:33.379Z,17.31
2022-09-09T09:34:01.343Z,17.36
2022-09-09T09:36:37.210Z,17.33
2022-09-09T09:41:55.301Z,17.40
2022-09-09T09:44:29.346Z,17.38
2022-09-09T09:47:10.194Z,17.38
2022-09-09T09:49:38.291Z,17.40
2022-09-09T09:52:07.499Z,17.49
2022-09-09T09:54:40.011Z,17.36
2022-09-09T09:57:13.138Z,17.47
2022-09-09T09:59:41.919Z,17.31
2022-09-09T10:02:20.137Z,17.34
2022-09-09T10:04:49.420Z,17.40
2022-09-09T10:07:21.791Z,17.43
2022-09-09T10:09:54.653Z,17.47
2022-09-09T10:12:37.976Z,17.51
2022-09-09T10:15:17.810Z,17.51
2022-09-09T10:17:57.429Z,17.49
2022-09-09T10:20:36.927Z,17.43
2022-09-09T10:23:17.610Z,17.32
2022-09-09T10:26:07.280Z,17.32
2022-09-09T10:29:02.908Z,17.31
2022-09-09T10:31:41.104Z,17.34
2022-09-09T10:34:36.241Z,17.42
2022-09-09T10:37:09.550Z,17.40
2022-09-09T10:39:43.366Z,17.47
2022-09-09T10:42:14.682Z,17.59
2022-09-09T10:45:02.312Z,17.69
2022-09-09T10:47:51.922Z,17.68
2022-09-09T10:53:37.650Z,17.83
2022-09-09T10:56:10.341Z,17.91
2022-09-09T10:58:44.113Z,18.01
2022-09-09T11:01:18.543Z,18.15
2022-09-09T11:03:52.910Z,18.27
2022-09-09T11:06:29.130Z,18.38
2022-09-09T11:08:59.837Z,18.49
2022-09-09T11:11:31.993Z,18.53
2022-09-09T11:14:06.118Z,18.46
2022-09-09T11:16:42.897Z,18.52
2022-09-09T11:19:20.077Z,18.58
2022-09-09T11:21:52.953Z,18.67
2022-09-09T11:24:25.722Z,18.71
2022-09-09T11:26:58.766Z,18.84
2022-09-09T11:30:01.764Z,18.99
2022-09-09T11:32:49.173Z,19.08
2022-09-09T11:35:33.552Z,19.13
2022-09-09T11:38:20.772Z,19.25
2022-09-09T11:40:49.645Z,19.27
2022-09-09T11:43:24.146Z,19.29
2022-09-09T11:46:00.172Z,19.14
2022-09-09T11:48:34.550Z,18.92
2022-09-09T11:51:10.131Z,18.97
2022-09-09T11:53:52.134Z,19.25
2022-09-09T11:56:29.476Z,19.53
2022-09-09T11:59:01.736Z,19.87
2022-09-09T12:01:38.557Z,20.10
2022-09-09T12:04:22.000Z,20.44
2022-09-09T12:06:54.665Z,20.62
2022-09-09T12:09:33.744Z,20.58
2022-09-09T12:12:24.116Z,20.69
2022-09-09T12:15:29.479Z,20.52
2022-09-09T12:18:02.972Z,20.74
2022-09-09T12:20:37.119Z,20.80
2022-09-09T12:23:21.611Z,20.96
2022-09-09T12:26:00.526Z,20.91
2022-09-09T12:28:42.738Z,20.93
2022-09-09T12:31:18.648Z,20.64
2022-09-09T12:33:49.072Z,20.40
2022-09-09T12:36:21.335Z,19.92
2022-09-09T12:38:51.626Z,19.66
2022-09-09T12:41:23.570Z,19.62
2022-09-09T12:43:52.006Z,19.68
2022-09-09T12:46:33.695Z,19.81
2022-09-09T12:49:03.188Z,19.81
2022-09-09T12:51:33.315Z,19.92
2022-09-09T12:54:01.955Z,19.95
2022-09-09T12:56:34.142Z,20.21
2022-09-09T12:59:02.302Z,20.55
2022-09-09T13:01:32.361Z,21.01
2022-09-09T13:04:01.310Z,21.10
2022-09-09T13:06:30.933Z,21.26
2022-09-09T13:09:00.815Z,21.13
2022-09-09T13:11:37.788Z,21.28
2022-09-09T13:14:07.407Z,21.13
2022-09-09T13:16:42.065Z,20.77
2022-09-09T13:19:16.287Z,20.80
2022-09-09T13:21:44.569Z,20.55
2022-09-09T13:24:29.405Z,19.92
2022-09-09T13:27:01.476Z,19.68
2022-09-09T13:29:30.967Z,19.30
2022-09-09T13:32:07.167Z,18.98
2022-09-09T13:34:37.162Z,18.75
2022-09-09T13:37:07.846Z,18.53
2022-09-09T13:39:37.725Z,18.26
2022-09-09T13:42:08.067Z,18.05
2022-09-09T13:44:40.954Z,17.77
2022-09-09T13:47:21.126Z,17.57
2022-09-09T13:49:49.436Z,17.39
2022-09-09T13:52:19.687Z,17.21
2022-09-09T13:54:49.568Z,17.01
2022-09-09T13:57:21.006Z,16.84
2022-09-09T14:00:06.075Z,16.65
2022-09-09T14:02:34.601Z,16.34
2022-09-09T14:05:02.774Z,16.17
2022-09-09T14:07:31.013Z,16.11
2022-09-09T14:10:01.189Z,15.99
2022-09-09T14:12:30.718Z,15.95
2022-09-09T14:14:58.762Z,15.88
2022-09-09T14:17:30.360Z,15.86
2022-09-09T14:19:58.588Z,15.85
2022-09-09T14:22:27.485Z,15.83
2022-09-09T14:24:55.458Z,15.78
2022-09-09T14:27:23.382Z,15.72
2022-09-09T14:29:52.672Z,15.69
2022-09-09T14:32:20.709Z,15.70
2022-09-09T14:34:50.723Z,15.69
2022-09-09T14:37:18.861Z,15.69
2022-09-09T14:39:48.053Z,15.70
2022-09-09T14:42:16.953Z,15.70
2022-09-09T14:44:44.921Z,15.71
2022-09-09T14:47:14.309Z,15.73
2022-09-09T14:49:45.126Z,15.76
2022-09-09T14:52:14.665Z,15.83
2022-09-09T14:54:42.619Z,15.82
2022-09-09T14:57:10.543Z,15.85
2022-09-09T14:59:38.510Z,15.86
2022-09-09T15:02:07.175Z,15.87
2022-09-09T15:04:36.561Z,15.89
2022-09-09T15:07:04.578Z,15.88
2022-09-09T15:09:32.669Z,15.92
2022-09-09T15:12:01.729Z,15.94
2022-09-09T15:14:29.664Z,15.95
2022-09-09T15:16:57.598Z,15.91
2022-09-09T15:19:25.657Z,15.94
2022-09-09T15:21:55.373Z,15.96
2022-09-09T15:24:23.471Z,16.02
2022-09-09T15:26:51.671Z,16.04
2022-09-09T15:29:19.892Z,16.12
2022-09-09T15:31:48.502Z,16.12
2022-09-09T15:34:16.617Z,16.30
2022-09-09T15:36:46.961Z,16.39
2022-09-09T15:39:18.164Z,16.60
2022-09-09T15:41:47.807Z,16.87
2022-09-09T15:44:16.498Z,17.16
2022-09-09T15:46:46.140Z,17.45
2022-09-09T15:49:16.127Z,17.89
2022-09-09T15:51:45.684Z,18.35
2022-09-09T15:54:17.745Z,18.74
2022-09-09T15:56:46.353Z,19.41
2022-09-09T15:59:15.705Z,20.05
2022-09-09T16:01:44.920Z,20.55
2022-09-09T16:04:13.142Z,21.13
2022-09-09T16:06:41.133Z,21.54
2022-09-09T16:09:11.059Z,21.82
2022-09-09T16:11:41.422Z,22.42
2022-09-09T16:14:09.708Z,22.80
2022-09-09T16:16:37.820Z,23.10
2022-09-09T16:19:08.590Z,23.64
2022-09-09T16:21:38.613Z,23.79
2022-09-09T16:24:08.069Z,23.78
2022-09-09T16:26:38.018Z,22.89
2022-09-09T16:29:07.832Z,21.97
2022-09-09T16:31:35.918Z,21.22
2022-09-09T16:34:05.237Z,20.73
2022-09-09T16:36:35.991Z,20.28
2022-09-09T16:39:06.460Z,19.58
2022-09-09T16:41:35.275Z,19.31
2022-09-09T16:44:05.376Z,19.04
2022-09-09T16:46:37.511Z,18.73
2022-09-09T16:49:07.241Z,18.54
2022-09-09T16:51:37.494Z,18.47
2022-09-09T16:54:08.051Z,18.20
2022-09-09T16:56:38.844Z,18.01
2022-09-09T16:59:08.649Z,17.87
2022-09-09T17:01:41.632Z,17.73
2022-09-09T17:04:11.773Z,17.57
2022-09-09T17:06:40.014Z,17.45
2022-09-09T17:09:09.268Z,17.28
2022-09-09T17:11:38.012Z,17.10
2022-09-09T17:14:07.303Z,16.98
2022-09-09T17:16:36.201Z,16.94
2022-09-09T17:19:06.008Z,16.83
2022-09-09T17:21:34.689Z,16.73
2022-09-09T17:24:03.056Z,16.50
2022-09-09T17:26:34.096Z,16.49
2022-09-09T17:29:02.802Z,16.33
2022-09-09T17:31:32.278Z,16.17
2022-09-09T17:34:01.098Z,15.94
2022-09-09T17:36:33.246Z,15.80
2022-09-09T17:39:02.451Z,15.72
2022-09-09T17:41:32.298Z,15.60
2022-09-09T17:44:00.553Z,15.45
2022-09-09T17:46:30.436Z,15.37
2022-09-09T17:49:00.540Z,15.28
2022-09-09T17:51:32.167Z,15.20
2022-09-09T17:54:01.960Z,15.20
2022-09-09T17:56:32.673Z,15.15
2022-09-09T17:59:01.689Z,15.10
2022-09-09T18:01:31.882Z,15.06
2022-09-09T18:04:02.391Z,14.98
2022-09-09T18:06:34.833Z,14.93
2022-09-09T18:09:05.906Z,14.88
2022-09-09T18:11:38.561Z,14.82
2022-09-09T18:14:06.984Z,14.80
2022-09-09T18:16:36.350Z,14.69
2022-09-09T18:19:06.310Z,14.53
2022-09-09T18:21:36.168Z,14.35
2022-09-09T18:24:06.821Z,14.20
2022-09-09T18:26:36.285Z,14.07
2022-09-09T18:29:07.282Z,13.99
2022-09-09T18:31:37.767Z,13.98
2022-09-09T18:34:08.467Z,13.92
2022-09-09T18:36:39.957Z,13.90
2022-09-09T18:39:09.278Z,13.86
2022-09-09T18:41:39.474Z,13.87
2022-09-09T18:44:10.253Z,13.83
2022-09-09T18:46:39.843Z,13.94
2022-09-09T18:49:08.669Z,13.98
2022-09-09T18:51:40.575Z,14.02
2022-09-09T18:54:12.809Z,14.06
2022-09-09T18:56:41.350Z,14.09
2022-09-09T18:59:12.538Z,14.10
2022-09-09T19:01:40.515Z,14.18
2022-09-09T19:04:09.801Z,14.19
2022-09-09T19:06:41.998Z,14.15
2022-09-09T19:09:11.516Z,14.03
2022-09-09T19:11:40.246Z,14.06
2022-09-09T19:14:12.037Z,14.09
2022-09-09T19:16:41.502Z,14.11
2022-09-09T19:19:13.427Z,14.06
2022-09-09T19:21:43.679Z,14.06
2022-09-09T19:24:15.083Z,14.03
2022-09-09T19:26:45.925Z,14.05
2022-09-09T19:29:16.258Z,14.07
2022-09-09T19:32:01.920Z,14.09
2022-09-09T19:34:33.299Z,14.05
2022-09-09T19:37:02.657Z,14.03
2022-09-09T19:39:32.092Z,14.02
2022-09-09T19:42:00.128Z,14.00
2022-09-09T19:44:28.186Z,13.96
2022-09-09T19:46:56.469Z,13.95
2022-09-09T19:49:25.227Z,13.92
2022-09-09T19:51:55.101Z,13.89
2022-09-09T19:54:24.391Z,13.91
2022-09-09T19:56:52.399Z,13.85
2022-09-09T19:59:20.868Z,13.81
2022-09-09T20:01:49.243Z,13.79
2022-09-09T20:04:17.779Z,13.66
2022-09-09T20:06:46.385Z,13.63
2022-09-09T20:09:16.350Z,13.60
2022-09-09T20:11:49.697Z,13.55
2022-09-09T20:14:18.839Z,13.58
2022-09-09T20:16:47.339Z,13.62
2022-09-09T20:19:17.324Z,13.53
2022-09-09T20:21:48.531Z,13.51
2022-09-09T20:24:19.406Z,13.49
2022-09-09T20:26:49.321Z,13.41
2022-09-09T20:29:19.095Z,13.32
2022-09-09T20:31:47.659Z,13.32
2022-09-09T20:34:18.629Z,13.27
2022-09-09T20:36:48.416Z,13.27
2022-09-09T20:39:18.701Z,13.26
2022-09-09T20:41:48.476Z,13.27
2022-09-09T20:44:18.291Z,13.30
2022-09-09T20:46:48.913Z,13.30
2022-09-09T20:49:18.481Z,13.32
2022-09-09T20:51:47.913Z,13.36
2022-09-09T20:54:17.639Z,13.40
2022-09-09T20:56:49.688Z,13.35
2022-09-09T20:59:20.242Z,13.31
2022-09-09T21:01:48.734Z,13.31
2022-09-09T21:04:18.516Z,13.35
2022-09-09T21:06:46.935Z,13.33
2022-09-09T21:09:15.344Z,13.35
2022-09-09T21:11:43.547Z,13.36
2022-09-09T21:14:12.978Z,13.33
2022-09-09T21:16:40.941Z,13.26
2022-09-09T21:19:09.531Z,13.29
2022-09-09T21:21:37.649Z,13.29
2022-09-09T21:24:05.921Z,13.29
2022-09-09T21:26:35.487Z,13.31
2022-09-09T21:29:03.533Z,13.33
2022-09-09T21:31:33.280Z,13.30
2022-09-09T21:34:01.284Z,13.30
2022-09-09T21:36:29.463Z,13.30
2022-09-09T21:38:59.072Z,13.20
2022-09-09T21:41:27.420Z,13.14
2022-09-09T21:43:56.405Z,13.03
2022-09-09T21:46:26.576Z,12.99
2022-09-09T21:48:56.978Z,12.91
2022-09-09T21:51:25.750Z,12.84
2022-09-09T21:53:56.703Z,12.83
2022-09-09T21:56:26.722Z,12.85
2022-09-09T21:58:58.623Z,12.74
2022-09-09T22:01:27.064Z,12.67
2022-09-09T22:03:57.058Z,12.67
2022-09-09T22:06:25.045Z,12.62
2022-09-09T22:08:58.980Z,12.61
2022-09-09T22:11:28.059Z,12.62
2022-09-09T22:13:56.048Z,12.68
2022-09-09T22:16:25.432Z,12.63
2022-09-09T22:18:56.907Z,12.62
2022-09-09T22:21:26.267Z,12.62
2022-09-09T22:23:55.137Z,12.60
2022-09-09T22:26:23.653Z,12.64
2022-09-09T22:28:53.723Z,12.65
2022-09-09T22:31:22.679Z,12.71
2022-09-09T22:33:51.742Z,12.71
2022-09-09T22:36:22.124Z,12.81
2022-09-09T22:38:50.351Z,12.83
2022-09-09T22:41:19.498Z,12.80
2022-09-09T22:43:48.357Z,12.88
2022-09-09T22:46:16.672Z,12.80
2022-09-09T22:48:44.856Z,12.85
2022-09-09T22:51:15.081Z,12.87
2022-09-09T22:53:45.684Z,12.88
2022-09-09T22:56:15.720Z,12.91
2022-09-09T22:58:43.826Z,12.89
2022-09-09T23:01:15.295Z,12.81
2022-09-09T23:03:45.955Z,12.75
2022-09-09T23:06:22.182Z,12.69
2022-09-09T23:08:55.757Z,12.65
2022-09-09T23:11:26.283Z,12.59
2022-09-09T23:13:55.917Z,12.60
2022-09-09T23:16:25.616Z,12.54
2022-09-09T23:18:55.124Z,12.56
2022-09-09T23:21:26.511Z,12.56
2022-09-09T23:23:57.454Z,12.53
2022-09-09T23:26:27.223Z,12.44
2022-09-09T23:28:58.109Z,12.48
2022-09-09T23:31:27.733Z,12.50
2022-09-09T23:33:56.355Z,12.49
2022-09-09T23:36:25.822Z,12.50
2022-09-09T23:38:56.152Z,12.32
2022-09-09T23:41:24.542Z,12.22
2022-09-09T23:43:54.204Z,12.24
2022-09-09T23:46:25.239Z,12.29
2022-09-09T23:48:53.257Z,12.28
2022-09-09T23:51:23.991Z,12.23
2022-09-09T23:53:56.953Z,12.29
2022-09-09T23:56:28.802Z,12.34
2022-09-09T23:58:57.283Z,12.42
